createdAt,value
2019-03-21T00:03:27.548Z,24.74
2019-03-21T00:08:36.593Z,25.46
2019-03-21T00:13:45.473Z,22.44
2019-03-21T00:18:54.435Z,22.95
2019-03-21T00:24:03.326Z,26.40
2019-03-21T00:29:12.263Z,27.09
2019-03-21T00:34:21.135Z,23.52
2019-03-21T00:39:33.013Z,23.26
2019-03-21T00:44:38.419Z,24.90
2019-03-21T00:49:47.389Z,26.48
2019-03-21T00:54:56.353Z,27.99
2019-03-21T01:00:05.278Z,25.83
2019-03-21T01:05:14.155Z,24.36
2019-03-21T01:10:23.032Z,26.92
2019-03-21T01:15:31.911Z,26.38
2019-03-21T01:20:40.800Z,25.08
2019-03-21T01:25:49.686Z,31.57
2019-03-21T01:30:58.591Z,29.90
2019-03-21T01:36:07.486Z,31.05
2019-03-21T01:41:16.428Z,30.49
2019-03-21T01:46:25.291Z,27.93
2019-03-21T01:51:34.208Z,25.62
2019-03-21T01:56:43.116Z,26.53
2019-03-21T02:01:52.086Z,26.26
2019-03-21T02:07:00.971Z,26.15
2019-03-21T02:12:09.856Z,30.11
2019-03-21T02:17:18.732Z,23.94
2019-03-21T02:22:27.680Z,27.49
2019-03-21T02:27:36.594Z,25.34
2019-03-21T02:32:45.548Z,25.18
2019-03-21T02:37:54.457Z,29.25
2019-03-21T02:43:03.320Z,27.99
2019-03-21T02:48:12.205Z,26.38
2019-03-21T02:53:21.148Z,27.94
2019-03-21T02:58:30.035Z,25.83
2019-03-21T03:03:38.923Z,30.12
2019-03-21T03:08:47.813Z,26.53
2019-03-21T03:13:56.699Z,30.64
2019-03-21T03:19:05.576Z,25.34
2019-03-21T03:24:14.499Z,29.81
2019-03-21T03:29:23.419Z,25.71
2019-03-21T03:34:32.289Z,26.07
2019-03-21T03:39:41.180Z,23.45
2019-03-21T03:44:50.068Z,26.70
2019-03-21T03:49:58.931Z,25.17
2019-03-21T03:55:07.856Z,29.28
2019-03-21T04:00:16.756Z,26.23
2019-03-21T04:05:25.675Z,24.31
2019-03-21T04:10:34.554Z,24.17
2019-03-21T04:15:52.319Z,23.08
2019-03-21T04:20:51.838Z,23.91
2019-03-21T04:26:00.720Z,22.60
2019-03-21T04:31:09.610Z,23.54
2019-03-21T04:36:18.515Z,27.86
2019-03-21T04:41:27.430Z,28.98
2019-03-21T04:46:36.341Z,29.33
2019-03-21T04:51:45.188Z,25.53
2019-03-21T04:56:54.108Z,27.11
2019-03-21T05:02:02.999Z,27.72
2019-03-21T05:07:11.965Z,27.75
2019-03-21T05:12:20.873Z,31.78
2019-03-21T05:17:29.825Z,26.65
2019-03-21T05:22:38.712Z,34.02
2019-03-21T05:27:47.604Z,26.96
2019-03-21T05:32:56.480Z,30.06
2019-03-21T05:38:05.404Z,42.25
2019-03-21T05:43:14.289Z,34.94
2019-03-21T05:48:23.191Z,37.65
2019-03-21T05:53:32.063Z,38.37
2019-03-21T05:58:40.984Z,69.72
2019-03-21T06:03:49.838Z,55.28
2019-03-21T06:08:58.815Z,46.91
2019-03-21T06:14:07.709Z,60.02
2019-03-21T06:19:16.636Z,55.38
2019-03-21T06:24:25.531Z,57.03
2019-03-21T06:29:34.439Z,54.47
2019-03-21T06:34:43.318Z,51.59
2019-03-21T06:39:52.216Z,52.38
2019-03-21T06:45:01.106Z,50.53
2019-03-21T06:50:10.052Z,52.58
2019-03-21T06:55:18.935Z,50.78
2019-03-21T07:00:28.005Z,53.18
2019-03-21T07:05:36.908Z,52.19
2019-03-21T07:10:45.946Z,57.95
2019-03-21T07:15:54.863Z,53.16
2019-03-21T07:21:03.812Z,62.76
2019-03-21T07:26:12.680Z,56.86
2019-03-21T07:31:21.587Z,60.67
2019-03-21T07:36:30.449Z,60.59
2019-03-21T07:41:39.390Z,62.71
2019-03-21T07:46:48.272Z,62.30
2019-03-21T07:51:57.157Z,47.52
2019-03-21T07:57:06.046Z,48.81
2019-03-21T08:02:15.200Z,48.54
2019-03-21T08:07:24.063Z,48.71
2019-03-21T08:12:32.993Z,45.73
2019-03-21T08:17:41.921Z,43.03
2019-03-21T08:22:50.798Z,42.00
2019-03-21T08:27:59.716Z,39.04
2019-03-21T08:33:08.653Z,36.67
2019-03-21T08:38:17.557Z,37.10
2019-03-21T08:43:26.429Z,32.40
2019-03-21T08:48:35.280Z,33.81
2019-03-21T08:53:44.219Z,35.86
2019-03-21T08:58:53.092Z,32.79
2019-03-21T09:04:01.995Z,27.64
2019-03-21T09:09:10.845Z,30.04
2019-03-21T09:14:19.792Z,31.79
2019-03-21T09:19:28.665Z,30.29
2019-03-21T09:24:37.559Z,27.68
2019-03-21T09:29:53.385Z,28.41
2019-03-21T09:34:54.883Z,25.98
2019-03-21T09:40:03.772Z,20.58
2019-03-21T09:45:12.632Z,22.60
2019-03-21T09:50:21.544Z,15.94
2019-03-21T09:55:30.499Z,14.54
2019-03-21T10:00:39.391Z,12.49
2019-03-21T10:05:48.333Z,9.94
2019-03-21T10:10:57.199Z,10.39
2019-03-21T10:16:06.085Z,10.76
2019-03-21T10:21:15.005Z,10.98
2019-03-21T10:26:23.948Z,13.75
2019-03-21T10:31:32.878Z,10.83
2019-03-21T10:36:41.767Z,9.45
2019-03-21T10:41:50.655Z,8.52
2019-03-21T10:46:59.589Z,9.12
2019-03-21T10:52:08.481Z,9.98
2019-03-21T10:57:17.399Z,9.86
2019-03-21T11:02:26.256Z,10.95
2019-03-21T11:07:35.155Z,15.93
2019-03-21T11:12:44.071Z,18.22
2019-03-21T11:17:53.027Z,15.18
2019-03-21T11:23:01.930Z,17.83
2019-03-21T11:28:10.836Z,14.41
2019-03-21T11:33:19.793Z,12.30
2019-03-21T11:38:28.727Z,10.48
2019-03-21T11:43:37.607Z,10.87
2019-03-21T11:48:46.542Z,12.20
2019-03-21T11:53:55.427Z,12.70
2019-03-21T11:59:04.401Z,14.49
2019-03-21T12:04:13.466Z,14.04
2019-03-21T12:09:22.390Z,13.59
2019-03-21T12:14:31.339Z,14.44
2019-03-21T12:19:40.418Z,24.29
2019-03-21T12:24:49.401Z,41.16
2019-03-21T12:29:58.312Z,23.12
2019-03-21T12:35:07.212Z,16.21
2019-03-21T12:40:16.159Z,23.84
2019-03-21T12:45:25.023Z,27.97
2019-03-21T12:50:33.930Z,43.24
2019-03-21T12:55:42.811Z,51.13
2019-03-21T13:00:51.690Z,38.91
2019-03-21T13:06:00.625Z,38.63
2019-03-21T13:11:09.659Z,28.82
2019-03-21T13:16:21.146Z,24.53
2019-03-21T13:21:20.006Z,22.58
2019-03-21T13:26:28.846Z,20.09
2019-03-21T13:31:38.766Z,15.63
2019-03-21T13:36:46.157Z,15.91
2019-03-21T13:41:55.040Z,15.65
2019-03-21T13:47:03.904Z,25.18
2019-03-21T13:52:12.887Z,14.56
2019-03-21T13:57:21.761Z,16.06
2019-03-21T14:02:30.645Z,11.76
2019-03-21T14:07:39.547Z,16.42
2019-03-21T14:12:48.461Z,14.66
2019-03-21T14:17:57.324Z,14.78
2019-03-21T14:23:16.396Z,42.90
2019-03-21T14:28:14.715Z,37.86
2019-03-21T14:33:23.629Z,23.35
2019-03-21T14:38:32.511Z,29.44
2019-03-21T14:43:41.415Z,19.17
2019-03-21T14:48:50.280Z,19.02
2019-03-21T14:53:59.236Z,15.98
2019-03-21T14:59:08.116Z,19.16
2019-03-21T15:04:17.023Z,13.66
2019-03-21T15:09:25.927Z,18.35
2019-03-21T15:14:34.841Z,15.63
2019-03-21T15:19:43.687Z,13.21
2019-03-21T15:24:52.621Z,13.97
2019-03-21T15:30:01.540Z,16.67
2019-03-21T15:35:10.415Z,16.13
2019-03-21T15:40:19.292Z,20.49
2019-03-21T15:45:28.290Z,16.63
2019-03-21T15:50:38.269Z,16.49
2019-03-21T15:55:45.628Z,17.15
2019-03-21T16:00:54.531Z,12.66
2019-03-21T16:06:03.462Z,12.83
2019-03-21T16:11:18.081Z,12.35
2019-03-21T16:16:16.929Z,10.50
2019-03-21T16:21:25.833Z,10.46
2019-03-21T16:26:36.785Z,9.69
2019-03-21T16:31:43.179Z,12.44
2019-03-21T16:36:52.147Z,11.86
2019-03-21T16:42:01.054Z,11.83
2019-03-21T16:47:09.972Z,12.49
2019-03-21T16:52:18.837Z,18.32
2019-03-21T16:57:27.719Z,12.11
2019-03-21T17:02:36.599Z,11.90
2019-03-21T17:07:45.522Z,14.01
2019-03-21T17:12:54.421Z,14.14
2019-03-21T17:18:03.330Z,10.90
2019-03-21T17:23:12.265Z,11.68
2019-03-21T17:28:21.180Z,10.61
2019-03-21T17:33:30.048Z,8.24
2019-03-21T17:38:39.072Z,9.55
2019-03-21T17:43:47.932Z,9.09
2019-03-21T17:48:56.847Z,9.39
2019-03-21T17:54:05.751Z,8.69
2019-03-21T17:59:14.789Z,11.72
2019-03-21T18:04:23.811Z,11.79
2019-03-21T18:09:32.714Z,20.43
2019-03-21T18:14:41.641Z,9.99
2019-03-21T18:19:50.499Z,11.28
2019-03-21T18:24:59.341Z,11.59
2019-03-21T18:30:08.297Z,11.64
2019-03-21T18:35:17.187Z,10.44
2019-03-21T18:40:26.089Z,11.68
2019-03-21T18:45:34.997Z,11.57
2019-03-21T18:50:44.013Z,13.09
2019-03-21T18:55:52.868Z,13.55
2019-03-21T19:01:01.840Z,12.76
2019-03-21T19:06:10.708Z,11.51
2019-03-21T19:11:19.617Z,10.83
2019-03-21T19:16:28.461Z,13.13
2019-03-21T19:21:37.384Z,12.23
2019-03-21T19:26:46.271Z,12.35
2019-03-21T19:31:55.163Z,12.42
2019-03-21T19:37:04.036Z,12.77
2019-03-21T19:42:12.950Z,12.85
2019-03-21T19:47:24.950Z,13.31
2019-03-21T19:52:30.319Z,13.96
2019-03-21T19:57:39.171Z,13.76
2019-03-21T20:02:48.126Z,11.70
2019-03-21T20:07:56.951Z,20.02
2019-03-21T20:13:05.913Z,14.36
2019-03-21T20:18:14.839Z,15.06
2019-03-21T20:23:23.771Z,15.31
2019-03-21T20:28:32.682Z,20.73
2019-03-21T20:33:41.639Z,29.11
2019-03-21T20:38:50.517Z,22.49
2019-03-21T20:43:59.446Z,23.52
2019-03-21T20:49:08.376Z,22.85
2019-03-21T20:54:17.245Z,25.34
2019-03-21T20:59:26.140Z,24.63
2019-03-21T21:04:35.076Z,27.61
2019-03-21T21:09:43.986Z,29.15
2019-03-21T21:14:52.905Z,30.04
2019-03-21T21:20:01.803Z,26.11
2019-03-21T21:25:10.781Z,28.03
2019-03-21T21:30:19.655Z,29.49
2019-03-21T21:35:28.554Z,32.13
2019-03-21T21:40:37.415Z,30.67
2019-03-21T21:45:46.376Z,34.56
2019-03-21T21:50:55.271Z,33.64
2019-03-21T21:56:04.199Z,35.03
2019-03-21T22:01:13.084Z,34.08
2019-03-21T22:06:22.620Z,44.24
2019-03-21T22:11:33.008Z,41.23
2019-03-21T22:16:31.984Z,39.88
2019-03-21T22:21:40.894Z,39.11
2019-03-21T22:26:49.839Z,38.85
2019-03-21T22:31:58.722Z,39.44
2019-03-21T22:37:07.617Z,38.40
2019-03-21T22:42:16.517Z,38.08
2019-03-21T22:47:25.458Z,39.28
2019-03-21T22:52:34.328Z,39.92
2019-03-21T22:57:43.285Z,43.67
2019-03-21T23:02:52.213Z,46.81
2019-03-21T23:08:01.033Z,45.23
2019-03-21T23:13:09.912Z,51.29
2019-03-21T23:18:18.988Z,52.18
2019-03-21T23:23:27.871Z,49.19
2019-03-21T23:28:36.748Z,52.47
2019-03-21T23:33:45.631Z,55.72
2019-03-21T23:38:54.698Z,55.13
2019-03-21T23:44:03.619Z,56.52
2019-03-21T23:49:12.569Z,57.54
2019-03-21T23:54:21.451Z,56.24
2019-03-21T23:59:30.434Z,61.00
